首页
METAR-TAF:

METAR-TAF

机场 :

贝宁城, 尼日利亚

纬度: 6-19N, 经度: 5-36E, 海拔: 79米

当前天气观测

该预报发布于6小时和26分钟前的08:00 UTC
风速5节,风向
温度 28°C
湿度 89%
气压 1015 hPa
能見度: 4500
散云层高于900英尺
霾,

METAR: DNBE 260800Z 18005KT 4500 HZ SCT009 28/26 Q1015

时间: 15:26 (14:26 UTC)

预报

该预报发布于3小时和26分钟前的11:00 UTC
预报有效从26日的 12点(UTC)到 27日的 18点(UTC)
风速10节,风向西南
能见度10公里或以上
多云层高于1300英尺
短暂存在
从 26日的 16点(UTC)到 26日的 21点(UTC)
散云层高于1200英尺
少量云层高于2000英尺, 积雨云.
雷暴
成为
从 26日的 19点(UTC)到 26日的 21点(UTC)
风速2节,风向多变
散云层高于1000英尺
短暂存在
从 27日的 05点(UTC)到 27日的 08点(UTC)
能見度: 5000
轻雾
成为
从 27日的 08点(UTC)到 27日的 10点(UTC)
风速10节,风向南转西南
多云层高于1300英尺

TAF: DNBE 261100Z 2612/2718 23010KT 9999 BKN013 TEMPO 2616/2621 TS SCT012 FEW020CB BECMG 2619/2621 VRB02KT SCT010 TEMPO 2705/2708 5000 BR BECMG 2708/2710 21010KT BKN013

超过4000个机场的气象观测和天气预报(METAR&TAF报告)。

可查询的气象台以黄色和红色小点在地图上表示。

将鼠标移到小点上方,可查看气象台名称。

然后点击查看天气观测和预报。

如需切换地图:点击带黑十字的绿色按钮放大地图;点击带横线的绿色按钮缩小地图;或者点击绿色箭头查看邻近地区的地图。


METAR-TAF: